Time;durP1;ratioP1;P1;durP2;ratioP2;P2;SDS_P1;SDS_P2;PMS_P1;PMS_P2;Temp;Humidity;BMP_temperature;BMP_pressure;BME280_temperature;BME280_humidity;BME280_pressure;Samples;Min_cycle;Max_cycle;Signal;HPM_P1;HPM_P2
2022/01/22 00:01:17;;;;;;;16.47;11.70;;;3.50;99.90;;;;;;5153909;27;20464;-89
2022/01/22 00:03:44;;;;;;;18.27;11.73;;;3.50;99.90;;;;;;5132381;27;20484;-88
2022/01/22 00:06:11;;;;;;;17.27;12.30;;;3.50;99.90;;;;;;5136135;27;20442;-89
2022/01/22 00:08:38;;;;;;;12.57;11.07;;;3.50;99.90;;;;;;5135428;27;20963;-89
2022/01/22 00:11:04;;;;;;;17.70;11.90;;;3.50;99.90;;;;;;5149057;27;20430;-89
2022/01/22 00:16:17;;;;;;;14.40;10.73;;;3.60;99.90;;;;;;5131789;27;20444;-89
2022/01/22 00:18:44;;;;;;;12.20;10.70;;;3.60;99.90;;;;;;5132530;27;20441;-90
2022/01/22 00:21:11;;;;;;;18.50;12.77;;;3.60;99.90;;;;;;5131671;27;20452;-89
2022/01/22 00:23:40;;;;;;;14.00;10.70;;;3.60;99.90;;;;;;5130272;27;20443;-89
2022/01/22 00:26:06;;;;;;;13.87;10.70;;;3.60;99.90;;;;;;5130121;27;20455;-89
2022/01/22 00:28:34;;;;;;;15.20;11.00;;;3.60;99.90;;;;;;5132759;27;20443;-89
2022/01/22 00:31:01;;;;;;;17.93;12.20;;;3.70;99.90;;;;;;5131121;27;20457;-89
2022/01/22 00:33:28;;;;;;;14.33;10.63;;;3.70;99.90;;;;;;5134170;27;20443;-89
2022/01/22 00:35:55;;;;;;;17.77;10.67;;;3.70;99.90;;;;;;5131321;27;20896;-89
2022/01/22 00:38:21;;;;;;;13.83;9.17;;;3.80;99.90;;;;;;5130430;27;20471;-89
2022/01/22 00:40:51;;;;;;;14.13;9.00;;;3.80;99.90;;;;;;5128426;27;20449;-89
2022/01/22 00:43:19;;;;;;;14.13;8.83;;;3.80;99.90;;;;;;5131372;27;20468;-89
2022/01/22 00:45:48;;;;;;;10.40;9.27;;;3.80;99.90;;;;;;5132677;27;20447;-89
2022/01/22 00:48:15;;;;;;;9.50;8.37;;;3.80;99.90;;;;;;5133803;27;20983;-89
2022/01/22 00:50:43;;;;;;;11.90;8.83;;;3.80;99.90;;;;;;5131321;27;20480;-89
2022/01/22 00:53:10;;;;;;;10.20;8.60;;;3.90;99.90;;;;;;5128329;27;20534;-89
2022/01/22 00:55:36;;;;;;;12.70;8.20;;;3.90;99.90;;;;;;5127767;27;20519;-91
2022/01/22 00:58:03;;;;;;;10.57;8.53;;;4.00;99.90;;;;;;5130857;27;20475;-88
2022/01/22 01:00:30;;;;;;;15.30;9.00;;;4.00;99.90;;;;;;5140128;27;20437;-88
2022/01/22 01:02:58;;;;;;;14.60;10.00;;;4.00;99.90;;;;;;5147715;27;20445;-88
2022/01/22 01:05:24;;;;;;;8.03;7.20;;;3.90;99.90;;;;;;5135250;27;20458;-89
2022/01/22 01:07:51;;;;;;;11.50;8.57;;;4.00;99.90;;;;;;5129874;27;20492;-88
2022/01/22 01:10:20;;;;;;;9.00;7.53;;;4.00;99.90;;;;;;5132593;27;20483;-88
2022/01/22 01:12:49;;;;;;;11.63;8.63;;;4.00;99.90;;;;;;5132645;27;20577;-89
2022/01/22 01:15:34;;;;;;;10.20;8.03;;;4.00;99.90;;;;;;5130437;27;20507;-89
2022/01/22 01:32:09;;;;;;;11.07;8.23;;;4.00;99.90;;;;;;5133215;27;20465;-89
2022/01/22 01:32:13;;;;;;;15.13;11.57;;;4.00;99.90;;;;;;5146104;27;20427;-91
2022/01/22 01:34:44;;;;;;;16.70;11.37;;;4.10;99.90;;;;;;5131113;27;20882;-89
2022/01/22 01:37:13;;;;;;;13.07;11.13;;;4.10;99.90;;;;;;5131829;27;20500;-89
2022/01/22 01:39:41;;;;;;;12.77;10.30;;;4.10;99.90;;;;;;5132132;27;20441;-89
2022/01/22 01:42:12;;;;;;;11.73;10.57;;;4.10;99.90;;;;;;5135595;27;20484;-89
2022/01/22 01:44:40;;;;;;;13.77;10.13;;;4.20;99.90;;;;;;5148145;27;20423;-91
2022/01/22 01:47:09;;;;;;;12.13;9.67;;;4.30;99.90;;;;;;5154183;27;20465;-89
2022/01/22 01:49:37;;;;;;;12.63;10.80;;;4.20;99.90;;;;;;5133676;27;21068;-90
2022/01/22 01:52:09;;;;;;;21.00;10.37;;;4.20;99.90;;;;;;5127956;27;20522;-89
2022/01/22 01:54:46;;;;;;;14.20;10.37;;;4.20;99.90;;;;;;5137766;27;20449;-89
2022/01/22 01:57:32;;;;;;;11.93;9.03;;;4.30;99.90;;;;;;5152296;27;21053;-89
2022/01/22 02:00:00;;;;;;;11.17;9.53;;;4.30;99.90;;;;;;5135724;27;20482;-89
2022/01/22 02:02:29;;;;;;;16.00;9.60;;;4.30;99.90;;;;;;5132231;27;20448;-89
2022/01/22 02:04:56;;;;;;;14.43;9.00;;;4.40;99.90;;;;;;5128904;27;20444;-89
2022/01/22 02:07:24;;;;;;;11.93;9.50;;;4.40;99.90;;;;;;5133177;27;20979;-89
2022/01/22 02:09:51;;;;;;;14.87;10.10;;;4.40;99.90;;;;;;5134380;27;20479;-87
2022/01/22 02:12:32;;;;;;;13.27;8.97;;;4.40;99.90;;;;;;5149517;27;20447;-92
2022/01/22 02:23:36;;;;;;;12.53;10.70;;;4.50;99.90;;;;;;5105751;27;20461;-88
2022/01/22 02:26:04;;;;;;;15.87;10.63;;;4.50;99.90;;;;;;5131023;27;20444;-88
2022/01/22 02:28:32;;;;;;;19.60;11.07;;;4.50;99.90;;;;;;5138251;27;20540;-88
2022/01/22 02:31:07;;;;;;;15.00;12.03;;;4.60;99.90;;;;;;5135189;27;20606;-89
2022/01/22 02:33:45;;;;;;;16.30;10.80;;;4.60;99.90;;;;;;5128483;27;20872;-88
2022/01/22 02:36:19;;;;;;;14.70;11.20;;;4.60;99.90;;;;;;5129608;27;20534;-88
2022/01/22 02:38:53;;;;;;;15.80;11.80;;;4.60;99.90;;;;;;5132214;27;20452;-88
2022/01/22 02:41:22;;;;;;;11.30;9.67;;;4.70;99.90;;;;;;5128322;27;20456;-90
2022/01/22 02:43:49;;;;;;;16.33;10.70;;;4.70;99.90;;;;;;5128503;27;20456;-88
2022/01/22 02:46:17;;;;;;;14.40;11.47;;;4.70;99.90;;;;;;5136755;27;20456;-88
2022/01/22 02:48:44;;;;;;;15.00;10.80;;;4.70;99.90;;;;;;5155282;28;20490;-91
2022/01/22 02:51:11;;;;;;;10.70;9.60;;;4.70;99.90;;;;;;5134166;27;20476;-89
2022/01/22 02:53:38;;;;;;;11.47;10.00;;;4.70;99.90;;;;;;5125969;28;20440;-89
2022/01/22 02:56:06;;;;;;;16.90;11.20;;;4.70;99.90;;;;;;5127091;28;20443;-89
2022/01/22 02:58:33;;;;;;;13.50;10.70;;;4.70;99.90;;;;;;5128762;27;20464;-89
2022/01/22 03:01:00;;;;;;;14.10;11.13;;;4.80;99.90;;;;;;5124578;28;20437;-89
2022/01/22 03:03:26;;;;;;;12.30;11.00;;;4.80;99.90;;;;;;5127276;28;20437;-90
2022/01/22 03:05:53;;;;;;;14.93;10.37;;;4.80;99.90;;;;;;5127870;28;20446;-89
2022/01/22 03:08:24;;;;;;;13.03;11.07;;;4.80;99.90;;;;;;5127789;27;20469;-89
2022/01/22 03:10:52;;;;;;;12.40;11.10;;;4.80;99.90;;;;;;5131306;28;20480;-89
2022/01/22 03:16:32;;;;;;;15.90;11.30;;;4.70;99.90;;;;;;5131209;27;20451;-89
2022/01/22 03:19:03;;;;;;;12.40;10.20;;;4.70;99.90;;;;;;5131702;27;20485;-89
2022/01/22 03:21:41;;;;;;;13.43;11.27;;;4.80;99.90;;;;;;5131171;28;20968;-89
2022/01/22 03:29:40;;;;;;;12.53;11.20;;;4.80;99.90;;;;;;5130721;28;20479;-89
2022/01/22 03:32:10;;;;;;;19.70;11.53;;;4.70;99.90;;;;;;5131758;28;20451;-89
2022/01/22 03:34:47;;;;;;;13.90;12.27;;;4.70;99.90;;;;;;5158235;27;20527;-89
2022/01/22 03:37:14;;;;;;;15.43;12.77;;;4.70;99.90;;;;;;5147919;27;20460;-87
2022/01/22 03:39:40;;;;;;;15.20;12.07;;;4.70;99.90;;;;;;5149641;27;20432;-87
2022/01/22 03:42:08;;;;;;;17.17;12.23;;;4.70;99.90;;;;;;5155003;27;20455;-90
2022/01/22 03:44:35;;;;;;;17.23;13.30;;;4.70;99.90;;;;;;5145816;27;20447;-89
2022/01/22 03:47:04;;;;;;;16.80;11.70;;;4.70;99.90;;;;;;5133661;27;20483;-88
2022/01/22 03:49:31;;;;;;;14.17;12.40;;;4.80;99.90;;;;;;5134835;27;20539;-88
2022/01/22 03:51:58;;;;;;;14.23;11.17;;;4.70;99.90;;;;;;5130545;27;20448;-88
2022/01/22 03:54:25;;;;;;;16.87;12.93;;;4.70;99.90;;;;;;5133921;27;20449;-87
2022/01/22 03:56:53;;;;;;;13.43;11.30;;;4.70;99.90;;;;;;5132225;27;20460;-88
2022/01/22 03:59:19;;;;;;;14.83;12.70;;;4.80;99.90;;;;;;5135263;27;20445;-88
2022/01/22 04:04:34;;;;;;;14.40;12.90;;;4.70;99.90;;;;;;5132109;27;20436;-88
2022/01/22 04:10:02;;;;;;;17.90;11.37;;;4.70;99.90;;;;;;5133185;27;20514;-88
2022/01/22 04:12:38;;;;;;;16.47;12.90;;;4.80;99.90;;;;;;5133453;27;20531;-89
2022/01/22 04:15:08;;;;;;;13.23;11.40;;;4.80;99.90;;;;;;5146291;27;20990;-90
2022/01/22 04:24:49;;;;;;;13.70;11.63;;;4.80;99.90;;;;;;5134455;27;20488;-87
2022/01/22 04:26:05;;;;;;;14.20;11.60;;;4.70;99.90;;;;;;5145082;27;20422;-89
2022/01/22 04:28:32;;;;;;;14.77;12.00;;;4.70;99.90;;;;;;5151593;27;20472;-90
2022/01/22 04:31:00;;;;;;;12.77;10.63;;;4.80;99.90;;;;;;5151954;27;20475;-89
2022/01/22 04:33:27;;;;;;;17.40;12.83;;;4.80;99.90;;;;;;5133600;27;20449;-88
2022/01/22 04:35:55;;;;;;;15.20;12.13;;;4.80;99.90;;;;;;5149245;27;20421;-89
2022/01/22 04:38:22;;;;;;;14.93;11.60;;;4.80;99.90;;;;;;5147260;27;20502;-87
2022/01/22 04:40:48;;;;;;;17.07;10.90;;;4.90;99.90;;;;;;5147747;27;20439;-89
2022/01/22 04:43:15;;;;;;;13.53;11.50;;;4.80;99.90;;;;;;5155731;27;20459;-89
2022/01/22 04:45:53;;;;;;;15.73;11.30;;;4.80;99.90;;;;;;5139185;27;20447;-88
2022/01/22 04:48:40;;;;;;;12.83;11.53;;;4.80;99.90;;;;;;5154616;27;20528;-89
2022/01/22 04:56:51;;;;;;;14.03;11.53;;;4.80;99.90;;;;;;5105962;28;20441;-87
2022/01/22 04:59:19;;;;;;;12.40;11.10;;;4.90;99.90;;;;;;5117708;27;20440;-89
2022/01/22 05:01:46;;;;;;;12.07;9.80;;;4.90;99.90;;;;;;5131253;27;20432;-90
2022/01/22 05:04:12;;;;;;;11.70;10.60;;;4.90;99.90;;;;;;5131188;27;20435;-90
2022/01/22 05:06:41;;;;;;;13.20;11.90;;;5.00;99.90;;;;;;5133829;27;20860;-88
2022/01/22 05:09:07;;;;;;;14.40;11.77;;;4.90;99.90;;;;;;5129538;27;20445;-89
2022/01/22 05:11:34;;;;;;;15.40;12.20;;;4.90;99.90;;;;;;5133224;27;20538;-89
2022/01/22 05:14:01;;;;;;;16.43;12.70;;;4.90;99.90;;;;;;5130435;27;20467;-90
2022/01/22 05:16:28;;;;;;;13.17;11.40;;;4.90;99.90;;;;;;5131415;27;20452;-90
2022/01/22 05:18:59;;;;;;;15.90;11.07;;;4.90;99.90;;;;;;5128920;27;20442;-87
2022/01/22 05:21:28;;;;;;;14.70;11.20;;;4.90;99.90;;;;;;5136167;27;20429;-90
2022/01/22 05:23:59;;;;;;;13.27;10.63;;;5.00;99.90;;;;;;5159062;27;20458;-90
2022/01/22 05:29:31;;;;;;;13.10;10.32;;;5.00;99.90;;;;;;5101713;27;1198267;-88
2022/01/22 05:32:22;;;;;;;15.60;12.30;;;5.00;99.90;;;;;;5114487;28;20191;-88
2022/01/22 05:37:34;;;;;;;16.30;13.17;;;5.00;99.90;;;;;;5111807;28;20552;-89
2022/01/22 05:40:00;;;;;;;17.00;12.70;;;4.90;99.90;;;;;;5095056;28;20679;-89
2022/01/22 05:42:27;;;;;;;15.37;12.03;;;5.00;99.90;;;;;;5101255;28;20452;-89
2022/01/22 05:44:55;;;;;;;18.47;12.13;;;4.90;99.90;;;;;;5095472;28;20949;-89
2022/01/22 05:47:25;;;;;;;16.00;11.80;;;5.00;99.90;;;;;;5097747;28;20997;-89
2022/01/22 05:49:53;;;;;;;11.70;10.60;;;4.90;99.90;;;;;;5099523;28;20461;-89
2022/01/22 05:52:27;;;;;;;12.20;10.90;;;4.90;99.90;;;;;;5105568;28;20450;-89
2022/01/22 05:55:26;;;;;;;11.73;10.43;;;5.00;99.90;;;;;;5095025;28;20453;-89
2022/01/22 06:00:38;;;;;;;15.10;11.23;;;5.00;99.90;;;;;;5091354;28;20953;-89
2022/01/22 06:03:05;;;;;;;14.17;12.80;;;5.00;99.90;;;;;;5096730;28;20456;-88
2022/01/22 06:05:32;;;;;;;13.80;11.33;;;5.00;99.90;;;;;;5106457;28;20445;-89
2022/01/22 06:07:58;;;;;;;14.60;11.23;;;5.00;99.90;;;;;;5095172;28;20474;-89
2022/01/22 06:10:28;;;;;;;13.10;9.50;;;5.00;99.90;;;;;;5097462;28;20446;-89
2022/01/22 06:13:11;;;;;;;15.07;11.67;;;5.00;99.90;;;;;;5097666;28;20472;-89
2022/01/22 06:15:39;;;;;;;13.27;10.37;;;5.00;99.90;;;;;;5094089;28;20866;-89
2022/01/22 06:18:06;;;;;;;15.67;12.90;;;5.00;99.90;;;;;;5098284;28;20473;-89
2022/01/22 06:20:33;;;;;;;13.37;11.90;;;5.00;99.90;;;;;;5093606;28;20477;-89
2022/01/22 06:23:00;;;;;;;17.50;13.13;;;5.00;99.90;;;;;;5118122;28;20421;-89
2022/01/22 06:25:27;;;;;;;14.23;11.27;;;5.00;99.90;;;;;;5116059;28;20438;-89
2022/01/22 06:27:54;;;;;;;13.30;11.90;;;5.00;99.90;;;;;;5098968;28;20485;-88
2022/01/22 06:30:21;;;;;;;19.00;12.53;;;5.00;99.90;;;;;;5099983;28;20706;-90
2022/01/22 06:32:49;;;;;;;12.83;11.40;;;5.00;99.90;;;;;;5097558;28;20465;-89
2022/01/22 06:35:15;;;;;;;17.10;11.77;;;5.10;99.90;;;;;;5092413;28;20447;-89
2022/01/22 06:37:42;;;;;;;17.20;11.93;;;5.00;99.90;;;;;;5098317;28;20466;-89
2022/01/22 06:42:54;;;;;;;16.50;11.20;;;5.10;99.90;;;;;;5082914;28;20421;-89
2022/01/22 06:45:21;;;;;;;17.83;10.83;;;5.10;99.90;;;;;;5087924;28;20451;-88
2022/01/22 06:47:49;;;;;;;15.77;12.03;;;5.10;99.90;;;;;;5081859;28;20505;-89
2022/01/22 06:50:15;;;;;;;15.57;10.57;;;5.10;99.90;;;;;;5086793;28;20443;-88
2022/01/22 06:52:42;;;;;;;13.07;11.67;;;5.10;99.90;;;;;;5080435;28;20951;-90
2022/01/22 06:55:11;;;;;;;14.07;11.87;;;5.10;99.90;;;;;;5083677;28;20447;-91
2022/01/22 06:57:38;;;;;;;12.67;10.37;;;5.00;99.90;;;;;;5096539;28;20463;-89
2022/01/22 07:00:06;;;;;;;13.77;10.97;;;5.00;99.90;;;;;;5086539;28;20454;-89
2022/01/22 07:02:33;;;;;;;15.93;11.50;;;5.00;99.90;;;;;;5083272;28;20828;-88
2022/01/22 07:05:02;;;;;;;13.10;9.83;;;5.10;99.90;;;;;;5081936;28;20981;-88
2022/01/22 07:07:29;;;;;;;16.43;10.53;;;5.10;99.90;;;;;;5107128;28;20486;-89
2022/01/22 07:09:55;;;;;;;11.37;9.87;;;5.10;99.90;;;;;;5101402;28;20420;-85
2022/01/22 07:12:22;;;;;;;12.17;10.03;;;5.00;99.90;;;;;;5108267;28;20440;-85
2022/01/22 07:14:49;;;;;;;12.50;10.17;;;5.00;99.90;;;;;;5103375;28;20453;-85
2022/01/22 07:17:16;;;;;;;12.93;10.17;;;4.90;99.90;;;;;;5104790;28;20519;-85
2022/01/22 07:19:43;;;;;;;15.00;10.87;;;4.90;99.90;;;;;;5101080;28;20425;-86
2022/01/22 07:22:32;;;;;;;14.50;11.77;;;4.90;99.90;;;;;;5101775;28;20439;-85
2022/01/22 07:24:59;;;;;;;15.17;9.60;;;4.90;99.90;;;;;;5094580;28;20466;-87
2022/01/22 07:27:26;;;;;;;15.23;9.67;;;4.90;99.90;;;;;;5097140;28;20471;-86
2022/01/22 07:29:56;;;;;;;13.33;10.73;;;4.90;99.90;;;;;;5101165;28;20473;-89
2022/01/22 07:32:34;;;;;;;12.93;10.87;;;4.90;99.90;;;;;;5086181;28;20458;-89
2022/01/22 07:35:01;;;;;;;15.43;10.10;;;4.90;99.90;;;;;;5087871;28;20442;-88
2022/01/22 07:37:29;;;;;;;15.70;11.57;;;5.00;99.90;;;;;;5088522;28;20478;-88
2022/01/22 07:39:56;;;;;;;12.23;9.33;;;5.00;99.90;;;;;;5086946;28;21121;-87
2022/01/22 07:42:23;;;;;;;12.50;10.63;;;5.00;99.90;;;;;;5080849;28;20444;-87
2022/01/22 07:44:49;;;;;;;12.20;10.13;;;5.00;99.90;;;;;;5086108;28;20443;-88
2022/01/22 07:47:16;;;;;;;13.80;11.17;;;5.10;99.90;;;;;;5083757;28;21164;-88
2022/01/22 07:49:43;;;;;;;14.50;10.30;;;5.10;99.90;;;;;;5081637;28;20897;-88
2022/01/22 07:52:09;;;;;;;14.57;10.77;;;5.10;99.90;;;;;;5080564;28;20471;-90
2022/01/22 07:54:38;;;;;;;14.90;10.87;;;5.20;99.90;;;;;;5082564;28;20488;-87
2022/01/22 07:57:05;;;;;;;10.83;9.40;;;5.10;99.90;;;;;;5083564;28;20475;-88
2022/01/22 07:59:32;;;;;;;12.40;10.53;;;5.10;99.90;;;;;;5089621;28;20435;-88
2022/01/22 08:02:00;;;;;;;14.37;9.77;;;5.10;99.90;;;;;;5084976;28;20831;-88
2022/01/22 08:04:26;;;;;;;12.20;9.77;;;5.10;99.90;;;;;;5081049;28;20451;-90
2022/01/22 08:06:54;;;;;;;13.30;9.27;;;5.10;99.90;;;;;;5087245;28;20868;-87
2022/01/22 08:09:21;;;;;;;15.27;10.33;;;5.10;99.90;;;;;;5079140;28;20476;-88
2022/01/22 08:11:49;;;;;;;12.73;10.90;;;5.10;99.90;;;;;;5091406;28;20447;-87
2022/01/22 08:14:17;;;;;;;12.13;9.10;;;5.10;99.90;;;;;;5083717;28;20452;-88
2022/01/22 08:16:46;;;;;;;10.80;9.70;;;5.10;99.90;;;;;;5079758;28;20472;-88
2022/01/22 08:19:14;;;;;;;13.43;9.50;;;5.10;99.90;;;;;;5089584;28;20438;-88
2022/01/22 08:21:40;;;;;;;11.13;9.87;;;5.10;99.90;;;;;;5083201;28;20442;-88
2022/01/22 08:24:08;;;;;;;12.90;9.50;;;5.00;99.90;;;;;;5084627;28;20549;-88
2022/01/22 08:26:39;;;;;;;12.20;9.63;;;5.00;99.90;;;;;;5086803;28;20505;-88
2022/01/22 08:29:07;;;;;;;13.60;9.60;;;5.00;99.90;;;;;;5088621;28;20475;-87
2022/01/22 08:31:49;;;;;;;12.40;10.53;;;5.00;99.90;;;;;;5082531;28;20473;-90
2022/01/22 08:37:01;;;;;;;14.50;10.20;;;5.00;99.90;;;;;;5077349;28;20532;-88
2022/01/22 08:39:28;;;;;;;13.07;9.13;;;5.00;99.90;;;;;;5079119;28;20451;-91
2022/01/22 08:41:55;;;;;;;13.60;9.33;;;5.00;99.90;;;;;;5088292;28;20457;-90
2022/01/22 08:44:24;;;;;;;14.17;11.40;;;5.00;99.90;;;;;;5081938;28;20457;-90
2022/01/22 08:46:51;;;;;;;14.73;11.53;;;5.00;99.90;;;;;;5083543;28;20964;-89
2022/01/22 08:49:18;;;;;;;13.10;10.50;;;5.00;99.90;;;;;;5086535;28;20483;-89
2022/01/22 08:51:45;;;;;;;17.30;12.23;;;5.00;99.90;;;;;;5082738;28;20450;-90
2022/01/22 08:54:12;;;;;;;13.10;11.60;;;5.00;99.90;;;;;;5087139;28;20467;-87
2022/01/22 08:56:40;;;;;;;15.23;12.10;;;5.00;99.90;;;;;;5102350;28;20447;-88
2022/01/22 08:59:07;;;;;;;12.47;11.17;;;5.00;99.90;;;;;;5097852;28;20497;-88
2022/01/22 09:01:36;;;;;;;15.90;12.00;;;5.00;99.90;;;;;;5095276;28;20443;-88
2022/01/22 09:04:03;;;;;;;16.53;11.20;;;5.00;99.90;;;;;;5098652;28;20420;-87
2022/01/22 09:06:30;;;;;;;19.83;11.27;;;5.00;99.90;;;;;;5102820;28;20475;-87
2022/01/22 09:09:05;;;;;;;18.53;10.80;;;5.10;99.90;;;;;;5099418;28;20474;-87
2022/01/22 09:11:32;;;;;;;13.97;12.10;;;5.10;99.90;;;;;;5085852;28;20457;-87
2022/01/22 09:13:59;;;;;;;17.40;12.10;;;5.10;99.90;;;;;;5083508;28;20444;-86
2022/01/22 09:16:26;;;;;;;15.50;11.50;;;5.20;99.90;;;;;;5085894;28;20446;-86
2022/01/22 09:18:58;;;;;;;12.63;10.40;;;5.20;99.90;;;;;;5084989;28;20445;-88
2022/01/22 09:21:25;;;;;;;12.43;11.10;;;5.20;99.90;;;;;;5081061;28;20477;-89
2022/01/22 09:23:51;;;;;;;12.53;10.07;;;5.20;99.90;;;;;;5080873;28;20450;-89
2022/01/22 09:26:19;;;;;;;13.37;11.00;;;5.20;99.90;;;;;;5076861;28;20439;-88
2022/01/22 09:28:46;;;;;;;13.13;11.73;;;5.30;99.90;;;;;;5083254;28;21076;-88
2022/01/22 09:31:14;;;;;;;18.83;12.70;;;5.30;99.90;;;;;;5085006;28;20958;-90
2022/01/22 09:33:41;;;;;;;17.43;11.70;;;5.40;99.90;;;;;;5077587;28;20443;-87
2022/01/22 09:36:09;;;;;;;16.57;11.37;;;5.40;99.90;;;;;;5080481;28;20444;-88
2022/01/22 09:38:36;;;;;;;17.63;13.47;;;5.50;99.90;;;;;;5076383;28;20446;-88
2022/01/22 09:41:06;;;;;;;17.17;11.70;;;5.50;99.90;;;;;;5078470;28;20449;-88
2022/01/22 09:43:34;;;;;;;14.57;12.80;;;5.50;99.90;;;;;;5082889;28;20471;-88
2022/01/22 09:46:00;;;;;;;20.70;11.83;;;5.50;99.90;;;;;;5092245;28;20434;-87
2022/01/22 09:48:27;;;;;;;17.43;11.97;;;5.50;99.90;;;;;;5096269;28;20644;-87
2022/01/22 09:50:54;;;;;;;16.83;12.93;;;5.50;99.90;;;;;;5097283;28;20454;-85
2022/01/22 09:53:25;;;;;;;13.10;10.93;;;5.50;99.90;;;;;;5100334;28;20440;-87
2022/01/22 09:55:57;;;;;;;18.67;12.53;;;5.50;99.90;;;;;;5085004;28;20443;-88
2022/01/22 09:58:25;;;;;;;16.53;12.53;;;5.40;99.90;;;;;;5080092;28;20997;-87
2022/01/22 10:00:51;;;;;;;12.93;11.20;;;5.50;99.90;;;;;;5084424;28;20494;-88
2022/01/22 10:03:23;;;;;;;14.00;12.07;;;5.50;99.90;;;;;;5084034;28;20447;-87
2022/01/22 10:05:50;;;;;;;15.33;12.10;;;5.50;99.90;;;;;;5078797;28;20444;-86
2022/01/22 10:08:28;;;;;;;14.93;12.67;;;5.60;99.90;;;;;;5079813;28;20459;-88
2022/01/22 10:10:56;;;;;;;18.33;13.17;;;5.60;99.90;;;;;;5087276;28;20796;-88
2022/01/22 10:13:43;;;;;;;21.00;12.80;;;5.60;99.90;;;;;;5081880;28;20443;-88
2022/01/22 10:16:19;;;;;;;16.90;12.60;;;5.60;99.90;;;;;;5079212;28;20477;-87
2022/01/22 10:18:51;;;;;;;15.40;12.40;;;5.60;99.90;;;;;;5082816;28;20430;-87
2022/01/22 10:21:21;;;;;;;14.50;12.33;;;5.70;99.90;;;;;;5086696;28;20447;-86
2022/01/22 10:23:49;;;;;;;15.73;11.23;;;5.70;99.90;;;;;;5087921;28;20446;-87
2022/01/22 10:26:16;;;;;;;15.30;11.20;;;5.80;99.90;;;;;;5103783;28;20569;-86
2022/01/22 10:28:47;;;;;;;16.07;10.80;;;5.80;99.90;;;;;;5097799;28;20572;-87
2022/01/22 10:31:21;;;;;;;13.67;10.40;;;5.80;99.90;;;;;;5088970;28;20462;-87
2022/01/22 10:34:03;;;;;;;13.33;10.67;;;5.80;99.90;;;;;;5105586;28;20467;-87
2022/01/22 10:36:30;;;;;;;13.47;10.53;;;5.80;99.90;;;;;;5088595;28;20477;-88
2022/01/22 10:38:58;;;;;;;13.00;10.00;;;5.90;99.90;;;;;;5090076;28;20527;-88
2022/01/22 10:41:33;;;;;;;17.10;13.37;;;5.90;99.90;;;;;;5090466;28;20451;-88
2022/01/22 10:44:01;;;;;;;10.90;9.80;;;5.90;99.90;;;;;;5084278;28;20984;-88
2022/01/22 10:46:34;;;;;;;10.10;9.10;;;5.90;99.90;;;;;;5087442;28;20427;-86
2022/01/22 10:49:05;;;;;;;10.23;8.87;;;5.90;99.90;;;;;;5086811;28;20470;-87
2022/01/22 10:51:43;;;;;;;11.37;7.77;;;5.80;99.90;;;;;;5083057;28;20439;-88
2022/01/22 10:54:12;;;;;;;12.37;10.37;;;5.80;99.90;;;;;;5095404;28;20454;-87
2022/01/22 10:56:41;;;;;;;9.43;7.47;;;5.80;99.90;;;;;;5104974;28;20443;-87
2022/01/22 10:59:09;;;;;;;18.27;12.50;;;5.80;99.90;;;;;;5108374;28;20414;-86
2022/01/22 11:01:51;;;;;;;17.53;12.23;;;5.90;99.90;;;;;;5096979;28;20443;-86
2022/01/22 11:04:19;;;;;;;18.60;11.97;;;6.00;99.90;;;;;;5083451;28;20444;-87
2022/01/22 11:06:52;;;;;;;16.30;11.30;;;6.00;99.90;;;;;;5083540;28;20466;-87
2022/01/22 11:09:22;;;;;;;15.33;10.97;;;6.10;99.90;;;;;;5076211;28;20518;-87
2022/01/22 11:11:49;;;;;;;12.67;8.87;;;6.10;99.90;;;;;;5086290;28;20447;-89
2022/01/22 11:14:17;;;;;;;12.00;8.67;;;6.10;99.90;;;;;;5080355;28;20455;-89
2022/01/22 11:16:45;;;;;;;12.60;9.20;;;6.10;99.90;;;;;;5087299;28;20852;-89
2022/01/22 11:19:14;;;;;;;10.40;9.30;;;6.10;99.90;;;;;;5085299;28;20451;-87
2022/01/22 11:21:46;;;;;;;15.63;10.97;;;6.10;99.90;;;;;;5081560;28;20446;-86
2022/01/22 11:24:14;;;;;;;15.33;11.20;;;6.10;99.90;;;;;;5085122;28;20447;-87
2022/01/22 11:26:46;;;;;;;18.93;12.83;;;6.10;99.90;;;;;;5083300;28;20459;-88
2022/01/22 11:29:15;;;;;;;17.80;11.93;;;6.20;99.90;;;;;;5080124;28;20514;-89
2022/01/22 11:31:45;;;;;;;15.13;12.00;;;6.20;99.90;;;;;;5084860;28;20439;-89
2022/01/22 11:34:13;;;;;;;19.17;14.83;;;6.30;99.90;;;;;;5081490;28;20443;-89
2022/01/22 11:36:46;;;;;;;14.93;13.20;;;6.20;99.90;;;;;;5084766;28;20467;-89
2022/01/22 11:39:20;;;;;;;15.17;11.43;;;6.30;99.90;;;;;;5087037;28;20448;-89
2022/01/22 11:41:57;;;;;;;12.10;10.20;;;6.30;99.90;;;;;;5084224;28;20445;-90
2022/01/22 11:44:26;;;;;;;14.07;10.73;;;6.40;99.90;;;;;;5082331;28;20451;-88
2022/01/22 11:47:08;;;;;;;18.57;11.30;;;6.50;99.90;;;;;;5083255;28;20467;-90
2022/01/22 11:49:36;;;;;;;14.13;10.10;;;6.40;99.90;;;;;;5091000;28;20476;-88
2022/01/22 11:52:23;;;;;;;22.43;18.37;;;6.50;99.90;;;;;;5084918;28;20458;-89
2022/01/22 11:54:53;;;;;;;19.30;12.80;;;6.60;99.90;;;;;;5080996;28;20798;-89
2022/01/22 11:57:22;;;;;;;21.90;14.83;;;6.60;99.90;;;;;;5081234;28;20470;-89
2022/01/22 11:59:50;;;;;;;15.13;10.87;;;6.60;99.90;;;;;;5085557;28;20439;-89
2022/01/22 12:02:18;;;;;;;10.17;9.13;;;6.70;99.90;;;;;;5083569;28;20456;-88
2022/01/22 12:05:01;;;;;;;10.87;9.00;;;6.70;99.90;;;;;;5087001;28;20724;-89
2022/01/22 12:07:29;;;;;;;11.80;10.30;;;6.70;99.90;;;;;;5081914;28;20467;-88
2022/01/22 12:10:36;;;;;;;11.57;9.60;;;6.70;99.90;;;;;;5083521;28;20528;-87
2022/01/22 12:16:12;;;;;;;12.20;10.70;;;6.80;99.90;;;;;;5081757;28;20438;-87
2022/01/22 12:18:45;;;;;;;12.53;10.73;;;6.80;99.90;;;;;;5087477;28;20825;-88
2022/01/22 12:21:33;;;;;;;15.73;10.47;;;6.80;99.90;;;;;;5095049;28;20522;-86
2022/01/22 12:24:03;;;;;;;11.73;8.87;;;6.80;99.90;;;;;;5093459;28;20439;-87
2022/01/22 12:26:50;;;;;;;9.13;8.07;;;6.90;99.90;;;;;;5098942;28;20504;-91
2022/01/22 12:30:00;;;;;;;10.47;8.00;;;6.90;99.90;;;;;;5095744;28;20471;-89
2022/01/22 12:32:34;;;;;;;12.57;9.20;;;6.90;99.90;;;;;;5021998;28;20909;-89
2022/01/22 12:35:11;;;;;;;10.53;8.53;;;7.00;99.90;;;;;;5022327;28;20501;-88
2022/01/22 12:37:43;;;;;;;8.67;7.63;;;7.00;99.90;;;;;;5058167;28;21025;-89
2022/01/22 12:40:11;;;;;;;14.13;8.50;;;7.00;99.90;;;;;;5083054;28;20795;-89
2022/01/22 12:43:15;;;;;;;9.43;8.43;;;7.10;99.90;;;;;;5088484;28;20466;-88
2022/01/22 12:45:46;;;;;;;10.20;8.00;;;7.00;99.90;;;;;;5073050;28;20798;-88
2022/01/22 12:48:15;;;;;;;9.70;8.00;;;7.00;99.90;;;;;;5096672;28;20460;-89
2022/01/22 12:50:41;;;;;;;9.70;8.30;;;6.90;99.90;;;;;;5109880;28;20961;-89
2022/01/22 12:53:14;;;;;;;11.30;8.00;;;7.00;99.90;;;;;;5114232;28;20510;-86
2022/01/22 12:58:31;;;;;;;10.23;9.13;;;6.90;99.90;;;;;;5088056;28;20511;-87
2022/01/22 13:01:21;;;;;;;7.77;6.67;;;6.90;99.90;;;;;;5081583;28;20436;-89
2022/01/22 13:03:50;;;;;;;8.43;6.80;;;6.90;99.90;;;;;;5083021;28;20465;-86
2022/01/22 13:06:18;;;;;;;11.67;8.80;;;6.90;99.90;;;;;;5087354;28;20517;-87
2022/01/22 13:08:45;;;;;;;11.00;8.43;;;7.00;99.90;;;;;;5085182;28;20438;-85
2022/01/22 13:11:17;;;;;;;8.87;7.77;;;6.90;99.90;;;;;;5084164;28;20466;-87
2022/01/22 13:13:50;;;;;;;10.23;8.83;;;6.90;99.90;;;;;;5082233;28;20447;-87
2022/01/22 13:16:18;;;;;;;10.30;9.10;;;6.80;99.90;;;;;;5079488;28;21013;-88
2022/01/22 13:18:56;;;;;;;10.23;8.93;;;6.80;99.90;;;;;;5089267;28;20451;-89
2022/01/22 13:21:24;;;;;;;14.10;12.13;;;6.80;99.90;;;;;;5080033;28;20524;-89
2022/01/22 13:24:07;;;;;;;10.23;9.33;;;6.80;99.90;;;;;;5080922;28;20455;-87
2022/01/22 13:26:43;;;;;;;11.27;10.00;;;6.90;99.90;;;;;;5085758;28;20455;-88
2022/01/22 13:29:22;;;;;;;18.80;8.20;;;6.90;99.90;;;;;;5095421;28;20443;-87
2022/01/22 13:32:05;;;;;;;12.33;8.70;;;6.80;99.90;;;;;;5097899;28;20431;-87
2022/01/22 13:34:51;;;;;;;12.53;10.87;;;6.90;99.90;;;;;;5097633;28;20446;-87
2022/01/22 13:37:54;;;;;;;15.77;10.60;;;6.90;99.90;;;;;;5086929;28;20447;-87
2022/01/22 13:40:31;;;;;;;13.60;11.37;;;6.80;99.90;;;;;;5094044;28;20872;-87
2022/01/22 13:48:44;;;;;;;12.97;11.07;;;6.80;99.90;;;;;;5023105;28;20451;-87
2022/01/22 13:51:10;;;;;;;13.67;9.10;;;6.70;99.90;;;;;;5067437;28;20490;-87
2022/01/22 13:53:40;;;;;;;11.10;9.27;;;6.70;99.90;;;;;;5097288;28;20440;-87
2022/01/22 13:56:10;;;;;;;11.17;9.73;;;6.70;99.90;;;;;;5087802;28;20482;-87
2022/01/22 13:58:38;;;;;;;11.20;9.60;;;6.70;99.90;;;;;;5086470;28;20453;-87
2022/01/22 14:01:16;;;;;;;12.20;11.00;;;6.70;99.90;;;;;;5098736;28;20446;-86
2022/01/22 14:03:45;;;;;;;14.73;11.87;;;6.70;99.90;;;;;;5095636;28;20472;-86
2022/01/22 14:06:13;;;;;;;14.83;11.50;;;6.70;99.90;;;;;;5089307;28;20508;-87
2022/01/22 14:08:40;;;;;;;16.00;11.03;;;6.70;99.90;;;;;;5087668;28;20453;-86
2022/01/22 14:11:08;;;;;;;13.77;11.77;;;6.70;99.90;;;;;;5085758;28;21016;-87